Canefield Airport

Cloudy with adjacent showers and slight dust haze
29oC (84oF)

Cloudy with adjacent showers and slight dust haze


Winds: Easterly @ 04kts / 07km/h

Humidity: 66%

Barometric Pressure: 1014 mb

Accumulated Rainfall for June: 98.8 mm

Updated: 14:00 local time (18:00 UTC)

Douglas-Charles Airport

Cloudy with adjacent showers
27oC (81oF)

Cloudy with adjacent showers


Winds: South easterly @ 05kts / 09km/h

Humidity: 83%

Barometric Pressure: 1016 mb

Accumulated Rainfall for June: 168.2 mm

Updated: 14:00 local time (18:00 UTC)

Satellite Imagery

Satellite Imagery
Click image for larger view. (Source: National Hurricane Center).

Aviation Routine Report (METAR)

Douglas-Charles: METAR TDPD 231800Z 13005KT 9999 SCT012 BKN034 27/24 Q1016=
Canefield: METAR TDCF 231800Z 09004KT 9999 SCT017 29/22 Q1014=